METAR Data
IDs: Format: Raw Decoded Include TAF

Data at: 0706 UTC 23 Feb 2019

PALH 230653Z 00000KT 10SM CLR M12/M14 A3039 RMK AO2 SLP292 T11171139 $
PALH 230553Z 00000KT 10SM CLR M11/M14 A3037 RMK AO2 SLP287 T11111139 11044 21122 50007 $
PALH 230453Z 00000KT 10SM CLR M10/M14 A3037 RMK AO2 SLP287 T11001139 $
PALH 230353Z 00000KT 10SM CLR M10/M13 A3036 RMK AO2 SLP282 T11001133 $
PALH 230253Z 00000KT 10SM CLR M08/M14 A3035 RMK AO2 SLP279 T10831139 53007 $
PALH 230153Z 00000KT 10SM CLR M06/M13 A3034 RMK AO2 SLP276 T10611133 $
PALH 230053Z 00000KT 10SM CLR M04/M13 A3033 RMK AO2 SLP271 T10441128 $
PALH 222353Z 00000KT 10SM CLR M04/M13 A3033 RMK AO2 SLP271 T10441133 11044 21156 51013 $
PALH 222253Z 12004KT 10SM CLR M06/M14 A3032 RMK AO2 SLP270 T10611139 $
PALH 222153Z 00000KT 10SM CLR M06/M13 A3031 RMK AO2 SLP264 T10611133 $
PALH 222053Z 00000KT 10SM CLR M08/M12 A3029 RMK AO2 SLP258 T10781122 53014 $
PALH 221953Z 00000KT 10SM CLR M09/M12 A3027 RMK AO2 SLP252 T10941122 $
PALH 221853Z 00000KT 10SM CLR M12/M13 A3027 RMK AO2 SLP250 T11171128 $
PALH 221753Z 00000KT 10SM CLR M14/M17 A3025 RMK AO2 SLP245 I1000 I6000 T11441167 11067 21150 53021 $
PALH 221653Z 00000KT 10SM CLR M14/M16 A3023 RMK AO2 SLP238 I1000 T11391161 $
PALH 221553Z 00000KT 10SM CLR M12/M14 A3021 RMK AO2 SLP229 T11221144 $
PALH 221453Z 00000KT 10SM CLR M11/M14 A3019 RMK AO2 SLP223 T11061144 53015 $
PALH 221353Z 35007KT 10SM CLR M09/M13 A3016 RMK AO2 SLP213 T10891133 $
PALH 221253Z 01005KT 10SM CLR M08/M12 A3014 RMK AO2 SLP209 T10781122 $
PALH 221153Z 02006KT 10SM CLR M08/M12 A3014 RMK AO2 SLP208 I6000 T10781117 11044 21089 51020 $
PALH 221053Z 05003KT 10SM CLR M06/M12 A3013 RMK AO2 SLP203 T10611117 $
PALH 220953Z 06009KT 10SM CLR M05/M11 A3010 RMK AO2 SLP193 T10501111 $
PALH 220853Z 03004KT 10SM CLR M06/M12 A3008 RMK AO2 SLP188 I3000 T10611117 410281106 51023 $
PALH 220753Z 00000KT 10SM CLR M07/M12 A3007 RMK AO2 SLP183 I1000 T10721117 $
PALH 220653Z 18006KT 10SM CLR M08/M10 A3004 RMK AO2 SLP174 T10781100 $
PALH 220553Z 19005KT 10SM CLR M08/M10 A3001 RMK AO2 SLP164 T10781100 11028 21106 53020 $
PALH 220453Z 18005KT 10SM CLR M07/M09 A2999 RMK AO2 SLP156 T10671094 $
PALH 220353Z 00000KT 10SM CLR M06/M09 A2998 RMK AO2 SLP152 T10611094 $
PALH 220253Z 00000KT 10SM CLR M05/M09 A2995 RMK AO2 SLP144 T10501089 53014 $
PALH 220153Z 00000KT 10SM CLR M03/M08 A2993 RMK AO2 SLP138 T10281083 $
PALH 220053Z 20003KT 10SM FEW085 M03/M08 A2992 RMK AO2 SLP134 T10281083 $
PALH 212353Z 21005KT 10SM SCT085 M03/M09 A2991 RMK AO2 SLP130 T10281094 11028 21089 51010 $
PALH 212253Z 19003KT 10SM CLR M03/M09 A2990 RMK AO2 SLP127 T10331094 $
PALH 212153Z 19003KT 10SM CLR M04/M11 A2990 RMK AO2 SLP126 T10441111 $
PALH 212053Z 00000KT 10SM BKN110 M06/M12 A2988 RMK AO2 SLP121 T10561117 53028
PALH 211953Z 00000KT 10SM SCT100 M07/M12 A2986 RMK AO2 SLP111 T10721117